• Join FlightAware (Why Join?)
  • Login
  • US Flag 
06:29PM EDT


 

Airport Tracker/Info


-or-


 

Live Flight TrackerFlight Track Log ✈ N425DD ✈ 08-May-2013 ✈ KFUL - KSAC

Flight Track Log - Related Links

Times and Time Zones

All times are in EDT time to prevent confusion due to time zone crossing. See the N425DD flight status page for this flight to view local times or setup timezone preferences in your user account.

Time Position Orientation Groundspeed Altitude Reporting Facility
EDT Latitude Longitude Course Direction KTS MPH feet Rate Location/Type
06:16PM 33.8333 -118.0000 140° Southeast 156 180 1,800  Level Southern California TRACON
06:17PM 33.8000 -117.9667 140° Southeast 169 194 3,200 1,320 Climbing Southern California TRACON
06:18PM 33.7667 -117.9833 203° Southwest 175 201 4,500 1,140 Climbing Southern California TRACON
06:19PM 33.7333 -118.0167 220° Southwest 176 203 5,400 720 Climbing Southern California TRACON
06:21PM 33.6714 -118.0975 227° Southwest 190 219 6,800 900 Climbing Los Angeles Center
06:22PM 33.6253 -118.1467 222° Southwest 186 214 8,400 1,440 Climbing Los Angeles Center
06:23PM 33.6106 -118.2061 253° West 181 208 9,800 1,140 Climbing Los Angeles Center
06:24PM 33.6536 -118.1972 10° North 185 213 10,800 960 Climbing Los Angeles Center
06:25PM 33.6919 -118.1528 44° Northeast 192 221 11,800 960 Climbing Los Angeles Center
06:26PM 33.7364 -118.1217 30° Northeast 194 223 12,900 1,080 Climbing Los Angeles Center
06:27PM 33.7869 -118.1075 13° North 189 217 14,100 1,320 Climbing Los Angeles Center
06:28PM 33.8478 -118.0989 North 186 214 15,700 1,200 Climbing Los Angeles Center
06:29PM 33.8969 -118.1169 343° North 186 214 16,700 960 Climbing Los Angeles Center
06:30PM 33.9428 -118.1444 334° Northwest 185 213 17,700 840 Climbing Los Angeles Center
06:31PM 33.9889 -118.1753 331° Northwest 190 219 18,500 960 Climbing Los Angeles Center
06:32PM 34.0472 -118.2064 336° Northwest 191 220 19,700 720 Climbing Los Angeles Center
06:33PM 34.0969 -118.2319 337° Northwest 195 224 20,100 180 Climbing Los Angeles Center
06:34PM 34.1514 -118.2669 332° Northwest 219 252 20,100 -60 Level Los Angeles Center
06:35PM 34.2092 -118.3008 334° Northwest 230 265 20,000 -60 Descending Los Angeles Center
06:37PM 34.2692 -118.3303 338° Northwest 232 267 20,000  Level Los Angeles Center
06:38PM 34.3386 -118.3703 335° Northwest 232 267 20,000  Level Los Angeles Center
06:39PM 34.3950 -118.4083 331° Northwest 232 267 20,000  Level Los Angeles Center
06:40PM 34.4528 -118.4417 335° Northwest 232 267 20,000  Level Los Angeles Center
06:41PM 34.5094 -118.4789 332° Northwest 232 267 20,000  Level Los Angeles Center
06:42PM 34.5675 -118.5122 335° Northwest 231 266 20,000  Level Los Angeles Center
06:43PM 34.6261 -118.5450 335° Northwest 232 267 20,000  Level Los Angeles Center
06:44PM 34.6844 -118.5794 334° Northwest 233 268 20,000  Level Los Angeles Center
06:45PM 34.7519 -118.6231 332° Northwest 229 264 20,000  Level Los Angeles Center
06:46PM 34.8083 -118.6619 330° Northwest 232 267 20,000  Level Los Angeles Center
06:47PM 34.8647 -118.6997 331° Northwest 232 267 20,000  Level Los Angeles Center
06:48PM 34.9231 -118.7314 336° Northwest 232 267 20,000  Level Los Angeles Center
06:49PM 34.9883 -118.7794 329° Northwest 231 266 20,000  Level Los Angeles Center
06:50PM 35.0450 -118.8150 333° Northwest 230 265 20,000  Level Los Angeles Center
06:51PM 35.1011 -118.8519 332° Northwest 230 265 20,000  Level Los Angeles Center
06:52PM 35.1483 -118.8803 334° Northwest 233 268 20,000  Level Los Angeles Center
06:53PM 35.2161 -118.9258 331° Northwest 234 269 20,000  Level Los Angeles Center
06:54PM 35.2733 -118.9611 333° Northwest 231 266 20,000  Level Los Angeles Center
06:55PM 35.3417 -119.0061 332° Northwest 234 269 20,000  Level Los Angeles Center
06:56PM 35.3972 -119.0433 331° Northwest 231 266 20,000  Level Los Angeles Center
06:57PM 35.4550 -119.0814 332° Northwest 234 269 20,000  Level Los Angeles Center
06:58PM 35.5119 -119.1169 333° Northwest 232 267 20,000  Level Los Angeles Center
06:59PM 35.5731 -119.1431 341° North 238 274 20,000  Level Los Angeles Center
07:00PM 35.6436 -119.1800 337° Northwest 234 269 20,000  Level Los Angeles Center
07:01PM 35.6664 -119.1942 333° Northwest 233 268 20,000  Level Oakland Center
07:02PM 35.7269 -119.2211 340° North 231 266 20,000  Level Oakland Center
07:03PM 35.7853 -119.2528 336° Northwest 231 266 20,000  Level Oakland Center
07:04PM 35.8456 -119.2825 338° Northwest 233 268 20,000  Level Oakland Center
07:05PM 35.9156 -119.3200 337° Northwest 231 266 20,000  Level Oakland Center
07:06PM 35.9758 -119.3486 339° North 233 268 20,000  Level Oakland Center
07:07PM 36.0375 -119.3794 338° Northwest 240 276 20,000  Level Oakland Center
07:08PM 36.0975 -119.4094 338° Northwest 239 275 20,000  Level Oakland Center
07:09PM 36.1558 -119.4442 334° Northwest 253 291 20,000  Level Oakland Center
07:10PM 36.2161 -119.4711 340° North 231 266 20,000  Level Oakland Center
07:11PM 36.2772 -119.5025 338° Northwest 246 283 20,000  Level Oakland Center
07:12PM 36.3367 -119.5325 338° Northwest 233 268 20,000  Level Oakland Center
07:13PM 36.4083 -119.5706 337° Northwest 237 273 20,000  Level Oakland Center
07:14PM 36.4697 -119.6011 338° Northwest 239 275 20,000  Level Oakland Center
07:15PM 36.5306 -119.6328 337° Northwest 239 275 20,000  Level Oakland Center
07:16PM 36.5858 -119.6778 327° Northwest 240 276 20,000  Level Oakland Center
07:17PM 36.6422 -119.7217 328° Northwest 240 276 20,000  Level Oakland Center
07:18PM 36.6994 -119.7667 328° Northwest 244 281 20,000  Level Oakland Center
07:19PM 36.7553 -119.8111 327° Northwest 240 276 20,000  Level Oakland Center
07:20PM 36.8117 -119.8564 327° Northwest 240 276 20,000  Level Oakland Center
07:21PM 36.8789 -119.9106 327° Northwest 241 277 20,000  Level Oakland Center
07:22PM 36.9347 -119.9578 326° Northwest 241 277 20,000  Level Oakland Center
07:23PM 36.9925 -120.0028 328° Northwest 244 281 20,000  Level Oakland Center
07:24PM 37.0481 -120.0503 326° Northwest 243 280 20,000  Level Oakland Center
07:25PM 37.1081 -120.0964 328° Northwest 243 280 20,000  Level Oakland Center
07:26PM 37.1639 -120.1433 326° Northwest 240 276 20,000  Level Oakland Center
07:27PM 37.2197 -120.1892 327° Northwest 240 276 20,000 -120 Level Oakland Center
07:28PM 37.2767 -120.2342 328° Northwest 243 280 19,800 -300 Descending Oakland Center
07:29PM 37.3347 -120.2842 326° Northwest 252 290 19,400 -780 Descending Oakland Center
07:30PM 37.4003 -120.3283 332° Northwest 266 306 18,300 -720 Descending Oakland Center
07:31PM 37.4667 -120.3833 327° Northwest 261 300 18,100 -420 Descending Northern Cal TRACON
07:32PM 37.5167 -120.4333 322° Northwest 257 296 17,600 -840 Descending Northern Cal TRACON
07:33PM 37.5667 -120.5000 313° West 263 303 16,500 -1,080 Descending Northern Cal TRACON
07:34PM 37.6333 -120.5500 329° Northwest 260 299 15,400 -1,140 Descending Northern Cal TRACON
07:35PM 37.6403 -120.5647 301° West 259 298 15,100 -1,020 Descending Oakland Center
07:36PM 37.6967 -120.6203 322° Northwest 256 295 14,100 -1,020 Descending Oakland Center
07:36PM 37.7333 -120.6667 315° West 255 293 13,400 -840 Descending Northern Cal TRACON
07:37PM 37.7833 -120.7167 322° Northwest 250 288 12,700 -780 Descending Northern Cal TRACON
07:38PM 37.8500 -120.7833 322° Northwest 252 290 11,900 -840 Descending Northern Cal TRACON
07:39PM 37.9000 -120.8333 322° Northwest 248 285 11,100 -780 Descending Northern Cal TRACON
07:40PM 37.9147 -120.8417 336° Northwest 248 285 10,900 -900 Descending Oakland Center
07:41PM 37.9683 -120.8978 320° Northwest 248 285 9,900 -960 Descending Oakland Center
07:42PM 38.0203 -120.9542 319° Northwest 248 285 9,000 -960 Descending Oakland Center
07:43PM 38.0781 -121.0203 318° Northwest 236 272 8,000 -660 Descending Oakland Center
07:44PM 38.1256 -121.0697 321° Northwest 226 260 7,700 -540 Descending Oakland Center
07:45PM 38.1719 -121.1194 320° Northwest 220 253 7,000 -720 Descending Oakland Center
07:45PM 38.2000 -121.1500 319° Northwest 220 253 6,600 -900 Descending Northern Cal TRACON
07:46PM 38.2500 -121.2000 322° Northwest 230 265 5,700 -840 Descending Northern Cal TRACON
07:47PM 38.2833 -121.2500 310° West 222 255 5,000 -720 Descending Northern Cal TRACON
07:48PM 38.3333 -121.3000 322° Northwest 219 252 4,400 -660 Descending Northern Cal TRACON
07:49PM 38.3833 -121.3500 322° Northwest 223 257 3,700 -720 Descending Northern Cal TRACON
07:50PM 38.4136 -121.3636 341° North 219 252 3,200 -840 Descending Oakland Center
07:50PM 38.4333 -121.3833 322° Northwest 209 241 2,900 -720 Descending Northern Cal TRACON
07:51PM 38.4833 -121.4167 332° Northwest 175 201 2,300 -780 Descending Northern Cal TRACON
07:52PM 38.5167 -121.4500 322° Northwest 128 147 1,400 -900 Descending Northern Cal TRACON
07:53PM 38.5333 -121.4833 303° West 110 127 500 -1,020 Descending Northern Cal TRACON
07:56PM 38.5125 -121.4935 North  Level Estimated